createdAt,value
2017-11-24T00:01:42.006Z,4.80
2017-11-24T00:04:10.307Z,4.63
2017-11-24T00:06:37.719Z,5.50
2017-11-24T00:09:05.149Z,8.33
2017-11-24T00:11:32.559Z,6.00
2017-11-24T00:13:59.983Z,5.40
2017-11-24T00:16:27.714Z,4.90
2017-11-24T00:18:55.136Z,5.70
2017-11-24T00:21:22.607Z,5.63
2017-11-24T00:23:50.275Z,5.30
2017-11-24T00:26:17.696Z,6.40
2017-11-24T00:28:46.105Z,5.93
2017-11-24T00:31:13.519Z,5.30
2017-11-24T00:33:40.931Z,4.87
2017-11-24T00:36:08.491Z,12.50
2017-11-24T00:38:35.905Z,11.90
2017-11-24T00:41:04.115Z,5.27
2017-11-24T00:43:31.538Z,8.37
2017-11-24T00:45:58.950Z,9.50
2017-11-24T00:48:26.368Z,8.60
2017-11-24T00:50:53.791Z,6.97
2017-11-24T00:53:21.193Z,5.73
2017-11-24T00:55:48.612Z,8.93
2017-11-24T00:58:16.786Z,9.67
2017-11-24T01:00:45.272Z,5.90
2017-11-24T01:03:13.447Z,8.33
2017-11-24T01:05:41.629Z,5.83
2017-11-24T01:08:09.042Z,6.20
2017-11-24T01:10:37.961Z,8.47
2017-11-24T01:13:06.856Z,8.57
2017-11-24T01:15:35.026Z,5.60
2017-11-24T01:18:03.748Z,6.53
2017-11-24T01:20:31.158Z,9.00
2017-11-24T01:22:59.341Z,6.53
2017-11-24T01:25:27.648Z,7.00
2017-11-24T01:27:55.112Z,10.30
2017-11-24T01:30:22.971Z,8.33
2017-11-24T01:32:50.426Z,6.00
2017-11-24T01:35:17.836Z,9.37
2017-11-24T01:37:46.039Z,6.30
2017-11-24T01:40:14.209Z,6.70
2017-11-24T01:42:41.620Z,9.80
2017-11-24T01:45:09.146Z,7.23
2017-11-24T01:47:36.695Z,8.20
2017-11-24T01:50:04.113Z,6.00
2017-11-24T01:52:31.527Z,6.07
2017-11-24T01:54:58.950Z,6.33
2017-11-24T01:57:27.122Z,10.97
2017-11-24T01:59:54.539Z,7.70
2017-11-24T02:02:21.939Z,5.97
2017-11-24T02:04:49.359Z,7.03
2017-11-24T02:07:18.821Z,8.93
2017-11-24T02:09:46.231Z,7.80
2017-11-24T02:12:14.406Z,5.87
2017-11-24T02:14:41.814Z,6.50
2017-11-24T02:17:09.234Z,9.50
2017-11-24T02:19:37.434Z,7.53
2017-11-24T02:22:04.841Z,7.80
2017-11-24T02:24:32.253Z,7.10
2017-11-24T02:26:59.672Z,9.17
2017-11-24T02:29:27.843Z,7.57
2017-11-24T02:31:56.030Z,7.30
2017-11-24T02:34:23.758Z,8.33
2017-11-24T02:36:51.172Z,6.97
2017-11-24T02:39:18.779Z,8.87
2017-11-24T02:41:46.800Z,10.50
2017-11-24T02:44:14.211Z,6.10
2017-11-24T02:46:41.657Z,7.53
2017-11-24T02:49:09.073Z,7.03
2017-11-24T02:51:36.561Z,6.07
2017-11-24T02:54:05.317Z,7.17
2017-11-24T02:56:32.738Z,5.60
2017-11-24T02:59:00.918Z,5.97
2017-11-24T03:01:29.090Z,7.07
2017-11-24T03:03:57.281Z,6.97
2017-11-24T03:06:24.677Z,6.03
2017-11-24T03:08:52.194Z,6.13
2017-11-24T03:11:19.598Z,6.97
2017-11-24T03:13:47.855Z,8.27
2017-11-24T03:16:15.599Z,7.60
2017-11-24T03:18:43.138Z,6.30
2017-11-24T03:21:10.554Z,5.80
2017-11-24T03:23:37.967Z,6.97
2017-11-24T03:26:05.378Z,6.07
2017-11-24T03:28:32.790Z,9.43
2017-11-24T03:31:00.544Z,7.60
2017-11-24T03:33:28.001Z,6.10
2017-11-24T03:35:55.411Z,6.40
2017-11-24T03:38:23.330Z,6.50
2017-11-24T03:40:50.738Z,6.50
2017-11-24T03:43:18.151Z,5.40
2017-11-24T03:45:45.583Z,8.17
2017-11-24T03:48:13.051Z,5.13
2017-11-24T03:50:40.823Z,4.87
2017-11-24T03:53:08.221Z,4.37
2017-11-24T03:55:36.402Z,5.00
2017-11-24T03:58:03.810Z,8.57
2017-11-24T04:00:31.607Z,7.20
2017-11-24T04:02:59.772Z,6.03
2017-11-24T04:05:27.194Z,6.90
2017-11-24T04:07:54.703Z,5.73
2017-11-24T04:10:23.630Z,6.33
2017-11-24T04:12:51.039Z,8.63
2017-11-24T04:15:19.705Z,6.17
2017-11-24T04:17:47.462Z,6.37
2017-11-24T04:20:15.182Z,7.47
2017-11-24T04:22:43.596Z,9.87
2017-11-24T04:25:11.021Z,7.87
2017-11-24T04:27:39.207Z,7.87
2017-11-24T04:30:06.624Z,6.10
2017-11-24T04:32:34.042Z,5.87
2017-11-24T04:35:01.926Z,6.10
2017-11-24T04:37:29.578Z,6.90
2017-11-24T04:39:56.990Z,6.63
2017-11-24T04:42:25.410Z,8.00
2017-11-24T04:44:52.818Z,11.17
2017-11-24T04:47:21.215Z,8.63
2017-11-24T04:49:49.955Z,7.20
2017-11-24T04:52:17.482Z,7.73
2017-11-24T04:54:44.891Z,7.80
2017-11-24T04:57:12.314Z,6.30
2017-11-24T04:59:39.728Z,6.40
2017-11-24T05:02:08.007Z,6.20
2017-11-24T05:04:36.380Z,6.13
2017-11-24T05:07:04.551Z,9.00
2017-11-24T05:09:33.179Z,13.80
2017-11-24T05:12:00.731Z,8.90
2017-11-24T05:14:28.703Z,6.70
2017-11-24T05:16:56.557Z,6.53
2017-11-24T05:19:23.963Z,8.13
2017-11-24T05:21:51.372Z,10.33
2017-11-24T05:24:18.783Z,8.20
2017-11-24T05:26:46.954Z,8.20
2017-11-24T05:29:15.139Z,7.57
2017-11-24T05:31:43.337Z,6.77
2017-11-24T05:34:10.750Z,5.90
2017-11-24T05:36:38.165Z,8.10
2017-11-24T05:39:05.611Z,8.53
2017-11-24T05:41:33.068Z,5.57
2017-11-24T05:44:00.803Z,5.90
2017-11-24T05:46:28.991Z,6.07
2017-11-24T05:48:56.390Z,5.40
2017-11-24T05:51:23.928Z,5.47
2017-11-24T05:53:51.527Z,7.87
2017-11-24T05:56:18.945Z,6.37
2017-11-24T05:58:46.695Z,6.70
2017-11-24T06:01:14.115Z,7.90
2017-11-24T06:03:41.614Z,9.23
2017-11-24T06:06:09.030Z,8.30
2017-11-24T06:08:37.198Z,8.60
2017-11-24T06:11:05.409Z,7.70
2017-11-24T06:13:32.819Z,8.93
2017-11-24T06:16:00.238Z,7.00
2017-11-24T06:18:27.642Z,8.10
2017-11-24T06:20:55.050Z,8.10
2017-11-24T06:23:22.454Z,9.23
2017-11-24T06:25:49.874Z,9.83
2017-11-24T06:28:17.308Z,11.27
2017-11-24T06:30:44.766Z,7.80
2017-11-24T06:33:12.189Z,8.33
2017-11-24T06:35:40.358Z,8.77
2017-11-24T06:38:07.784Z,8.70
2017-11-24T06:40:35.186Z,9.67
2017-11-24T06:43:03.379Z,11.10
2017-11-24T06:45:30.789Z,14.30
2017-11-24T06:47:58.204Z,8.47
2017-11-24T06:50:25.613Z,11.50
2017-11-24T06:52:53.791Z,9.50
2017-11-24T06:55:21.979Z,10.07
2017-11-24T06:57:50.154Z,8.07
2017-11-24T07:00:17.580Z,7.20
2017-11-24T07:02:44.975Z,7.70
2017-11-24T07:05:12.392Z,7.70
2017-11-24T07:07:39.786Z,7.17
2017-11-24T07:10:07.202Z,8.20
2017-11-24T07:12:34.616Z,10.07
2017-11-24T07:15:02.043Z,7.77
2017-11-24T07:17:30.215Z,7.73
2017-11-24T07:19:58.382Z,7.13
2017-11-24T07:22:26.557Z,6.30
2017-11-24T07:24:54.755Z,6.13
2017-11-24T07:27:22.163Z,6.27
2017-11-24T07:29:49.574Z,5.70
2017-11-24T07:32:16.987Z,6.40
2017-11-24T07:34:45.163Z,5.10
2017-11-24T07:37:13.351Z,7.93
2017-11-24T07:39:41.535Z,14.03
2017-11-24T07:42:08.955Z,8.93
2017-11-24T07:44:36.367Z,10.20
2017-11-24T07:47:03.788Z,5.93
2017-11-24T07:49:31.975Z,6.90
2017-11-24T07:52:00.154Z,9.73
2017-11-24T07:54:27.563Z,10.03
2017-11-24T07:56:54.988Z,8.47
2017-11-24T07:59:22.382Z,9.83
2017-11-24T08:01:49.806Z,13.00
2017-11-24T08:04:17.223Z,5.77
2017-11-24T08:06:45.402Z,10.60
2017-11-24T08:09:12.821Z,7.80
2017-11-24T08:11:40.237Z,9.00
2017-11-24T08:14:07.657Z,8.00
2017-11-24T08:16:35.831Z,9.70
2017-11-24T08:19:04.012Z,5.30
2017-11-24T08:21:31.418Z,7.60
2017-11-24T08:23:58.849Z,6.83
2017-11-24T08:26:26.255Z,6.87
2017-11-24T08:28:53.668Z,7.07
2017-11-24T08:31:21.079Z,6.57
2017-11-24T08:33:49.266Z,6.73
2017-11-24T08:36:16.681Z,6.50
2017-11-24T08:38:44.117Z,5.80
2017-11-24T08:41:11.531Z,6.47
2017-11-24T08:43:39.702Z,8.40
2017-11-24T08:46:07.882Z,7.57
2017-11-24T08:48:41.022Z,6.50
2017-11-24T08:51:08.438Z,7.27
2017-11-24T08:53:35.873Z,8.43
2017-11-24T08:56:03.267Z,6.63
2017-11-24T08:58:30.680Z,7.03
2017-11-24T09:00:58.863Z,5.40
2017-11-24T09:03:27.044Z,7.37
2017-11-24T09:05:55.219Z,9.40
2017-11-24T09:08:22.632Z,5.17
2017-11-24T09:10:50.056Z,6.30
2017-11-24T09:13:17.455Z,5.90
2017-11-24T09:15:44.883Z,8.10
2017-11-24T09:18:13.063Z,7.53
2017-11-24T09:20:40.470Z,5.43
2017-11-24T09:23:08.649Z,5.40
2017-11-24T09:25:36.058Z,5.57
2017-11-24T09:28:03.480Z,5.30
2017-11-24T09:30:30.882Z,5.90
2017-11-24T09:32:58.297Z,8.23
2017-11-24T09:35:25.706Z,5.27
2017-11-24T09:37:53.119Z,6.20
2017-11-24T09:40:20.526Z,7.33
2017-11-24T09:42:48.711Z,5.97
2017-11-24T09:45:16.129Z,6.10
2017-11-24T09:47:43.550Z,6.93
2017-11-24T09:50:10.960Z,6.80
2017-11-24T09:52:39.135Z,6.70
2017-11-24T09:55:07.323Z,6.30
2017-11-24T09:57:35.503Z,5.57
2017-11-24T10:00:02.925Z,7.50
2017-11-24T10:02:30.359Z,7.43
2017-11-24T10:04:57.760Z,10.23
2017-11-24T10:07:25.938Z,6.90
2017-11-24T10:09:54.119Z,6.57
2017-11-24T10:12:21.539Z,5.33
2017-11-24T10:14:48.955Z,6.10
2017-11-24T10:17:16.354Z,6.93
2017-11-24T10:19:43.770Z,5.13
2017-11-24T10:22:16.906Z,6.80
2017-11-24T10:24:44.339Z,4.83
2017-11-24T10:27:11.747Z,9.10
2017-11-24T10:29:39.151Z,5.20
2017-11-24T10:32:06.558Z,5.63
2017-11-24T10:34:33.962Z,5.23
2017-11-24T10:37:01.380Z,5.50
2017-11-24T10:39:28.791Z,4.67
2017-11-24T10:41:56.209Z,5.27
2017-11-24T10:44:23.611Z,5.57
2017-11-24T10:46:51.022Z,5.37
2017-11-24T10:49:18.435Z,4.90
2017-11-24T10:51:46.619Z,7.07
2017-11-24T10:54:14.799Z,5.10
2017-11-24T10:56:42.200Z,4.87
2017-11-24T10:59:09.615Z,5.60
2017-11-24T11:01:37.026Z,8.53
2017-11-24T11:04:04.439Z,5.60
2017-11-24T11:06:31.851Z,5.07
2017-11-24T11:09:00.035Z,6.43
2017-11-24T11:11:28.221Z,4.93
2017-11-24T11:13:55.631Z,4.87
2017-11-24T11:16:23.034Z,4.90
2017-11-24T11:18:50.449Z,5.37
2017-11-24T11:21:17.870Z,6.87
2017-11-24T11:23:45.283Z,5.97
2017-11-24T11:26:13.468Z,6.70
2017-11-24T11:28:41.659Z,4.87
2017-11-24T11:31:09.066Z,5.10
2017-11-24T11:33:36.482Z,10.23
2017-11-24T11:36:03.894Z,5.90
2017-11-24T11:38:32.066Z,4.80
2017-11-24T11:41:00.251Z,5.17
2017-11-24T11:43:28.437Z,4.93
2017-11-24T11:45:56.611Z,5.23
2017-11-24T11:48:24.018Z,4.70
2017-11-24T11:50:51.429Z,8.03
2017-11-24T11:53:18.850Z,7.03
2017-11-24T11:55:46.264Z,8.27
2017-11-24T11:58:13.713Z,5.30
2017-11-24T12:00:41.138Z,6.93
2017-11-24T12:03:09.323Z,6.90
2017-11-24T12:05:36.733Z,5.27
2017-11-24T12:08:04.136Z,5.10
2017-11-24T12:10:31.550Z,6.13
2017-11-24T12:12:58.968Z,4.87
2017-11-24T12:15:26.372Z,5.20
2017-11-24T12:17:53.780Z,5.60
2017-11-24T12:20:21.193Z,8.43
2017-11-24T12:22:48.602Z,4.60
2017-11-24T12:25:16.023Z,4.60
2017-11-24T12:27:43.438Z,6.10
2017-11-24T12:30:10.850Z,5.77
2017-11-24T12:32:38.262Z,5.53
2017-11-24T12:35:05.683Z,8.40
2017-11-24T12:37:33.892Z,7.43
2017-11-24T12:40:01.316Z,5.40
2017-11-24T12:42:28.750Z,7.73
2017-11-24T12:44:56.919Z,6.80
2017-11-24T12:47:24.314Z,11.83
2017-11-24T12:49:51.742Z,6.43
2017-11-24T12:52:19.147Z,7.07
2017-11-24T12:54:46.570Z,6.30
2017-11-24T12:57:13.984Z,9.60
2017-11-24T12:59:42.166Z,8.50
2017-11-24T13:02:09.570Z,6.80
2017-11-24T13:04:36.991Z,6.87
2017-11-24T13:07:04.399Z,5.40
2017-11-24T13:09:31.812Z,6.80
2017-11-24T13:11:59.230Z,5.63
2017-11-24T13:14:27.399Z,8.03
2017-11-24T13:16:55.578Z,3.80
2017-11-24T13:19:23.755Z,3.90
2017-11-24T13:21:51.935Z,2.60
2017-11-24T13:24:19.340Z,1.60
2017-11-24T13:26:46.755Z,0.97
2017-11-24T13:29:14.158Z,2.87
2017-11-24T13:31:41.587Z,1.20
2017-11-24T13:34:08.996Z,1.13
2017-11-24T13:36:36.398Z,2.30
2017-11-24T13:39:03.823Z,1.13
2017-11-24T13:41:31.995Z,0.83
2017-11-24T13:44:00.191Z,0.80
2017-11-24T13:46:27.604Z,0.80
2017-11-24T13:48:55.029Z,1.10
2017-11-24T13:51:22.443Z,1.00
2017-11-24T13:53:49.854Z,2.40
2017-11-24T13:56:17.280Z,2.60
2017-11-24T13:58:44.680Z,1.20
2017-11-24T14:01:12.096Z,0.90
2017-11-24T14:03:39.498Z,0.83
2017-11-24T14:06:06.905Z,1.20
2017-11-24T14:08:34.334Z,0.80
2017-11-24T14:11:01.738Z,0.80
2017-11-24T14:13:29.144Z,1.07
2017-11-24T14:15:56.597Z,1.50
2017-11-24T14:18:23.964Z,1.40
2017-11-24T14:20:51.379Z,0.93
2017-11-24T14:23:18.792Z,2.80
2017-11-24T14:25:46.204Z,1.97
2017-11-24T14:28:13.598Z,0.83
2017-11-24T14:30:41.015Z,0.60
2017-11-24T14:33:08.425Z,1.17
2017-11-24T14:35:35.830Z,0.77
2017-11-24T14:38:04.008Z,1.40
2017-11-24T14:40:32.196Z,1.53
2017-11-24T14:43:00.364Z,1.83
2017-11-24T14:45:28.545Z,1.50
2017-11-24T14:47:56.714Z,1.13
2017-11-24T14:50:24.874Z,2.63
2017-11-24T14:52:53.055Z,1.10
2017-11-24T14:55:21.231Z,0.90
2017-11-24T14:57:49.411Z,1.87
2017-11-24T15:00:17.594Z,1.60
2017-11-24T15:02:44.991Z,1.47
2017-11-24T15:05:12.395Z,1.77
2017-11-24T15:07:40.565Z,2.10
2017-11-24T15:10:08.743Z,2.63
2017-11-24T15:12:36.916Z,2.50
2017-11-24T15:15:05.096Z,2.80
2017-11-24T15:17:32.508Z,2.17
2017-11-24T15:19:59.907Z,2.90
2017-11-24T15:22:27.314Z,3.60
2017-11-24T15:24:54.732Z,2.47
2017-11-24T15:27:22.134Z,2.93
2017-11-24T15:29:49.558Z,2.43
2017-11-24T15:32:16.955Z,2.57
2017-11-24T15:34:44.364Z,2.93
2017-11-24T15:37:11.774Z,2.87
2017-11-24T15:39:39.179Z,3.10
2017-11-24T15:42:06.584Z,4.70
2017-11-24T15:44:33.990Z,5.43
2017-11-24T15:47:01.396Z,6.87
2017-11-24T15:49:28.797Z,3.30
2017-11-24T15:51:56.203Z,3.73
2017-11-24T15:54:23.608Z,2.53
2017-11-24T15:56:51.031Z,3.43
2017-11-24T15:59:19.207Z,2.80
2017-11-24T16:01:47.391Z,3.80
2017-11-24T16:04:14.791Z,4.23
2017-11-24T16:06:42.976Z,5.60
2017-11-24T16:09:10.394Z,3.80
2017-11-24T16:11:37.799Z,14.20
2017-11-24T16:14:05.232Z,4.67
2017-11-24T16:16:32.634Z,4.47
2017-11-24T16:19:00.803Z,5.60
2017-11-24T16:21:28.984Z,4.90
2017-11-24T16:23:57.159Z,6.17
2017-11-24T16:26:25.331Z,6.93
2017-11-24T16:28:53.504Z,9.67
2017-11-24T16:31:21.683Z,6.10
2017-11-24T16:33:49.885Z,4.97
2017-11-24T16:36:17.287Z,6.73
2017-11-24T16:38:44.691Z,8.67
2017-11-24T16:41:12.108Z,6.97
2017-11-24T16:43:40.274Z,6.57
2017-11-24T16:46:07.690Z,6.53
2017-11-24T16:48:35.099Z,6.73
2017-11-24T16:51:03.276Z,8.50
2017-11-24T16:53:31.443Z,7.73
2017-11-24T16:55:59.618Z,6.70
2017-11-24T16:58:27.790Z,7.20
2017-11-24T17:00:55.982Z,6.87
2017-11-24T17:03:24.151Z,7.23
2017-11-24T17:05:52.322Z,6.67
2017-11-24T17:08:20.502Z,8.60
2017-11-24T17:10:47.919Z,6.90
2017-11-24T17:13:15.323Z,8.90
2017-11-24T17:15:42.718Z,6.97
2017-11-24T17:18:10.131Z,8.00
2017-11-24T17:20:37.542Z,10.10
2017-11-24T17:23:04.956Z,9.20
2017-11-24T17:25:32.349Z,9.63
2017-11-24T17:27:59.763Z,13.00
2017-11-24T17:30:27.175Z,12.20
2017-11-24T17:32:54.672Z,15.30
2017-11-24T17:35:22.842Z,17.87
2017-11-24T17:37:50.259Z,13.47
2017-11-24T17:40:17.676Z,15.07
2017-11-24T17:42:45.079Z,12.97
2017-11-24T17:45:12.500Z,11.03
2017-11-24T17:47:39.913Z,13.03
2017-11-24T17:50:08.086Z,11.87
2017-11-24T17:52:36.263Z,12.13
2017-11-24T17:55:03.689Z,15.70
2017-11-24T17:57:31.104Z,16.83
2017-11-24T17:59:58.517Z,16.73
2017-11-24T18:02:26.699Z,17.53
2017-11-24T18:04:54.890Z,16.20
2017-11-24T18:07:22.292Z,14.60
2017-11-24T18:09:49.710Z,15.10
2017-11-24T18:12:17.122Z,13.00
2017-11-24T18:14:44.550Z,14.27
2017-11-24T18:17:11.967Z,20.73
2017-11-24T18:19:39.374Z,16.40
2017-11-24T18:22:06.801Z,14.80
2017-11-24T18:24:34.204Z,15.27
2017-11-24T18:27:01.623Z,16.47
2017-11-24T18:29:29.030Z,17.30
2017-11-24T18:31:57.212Z,21.23
2017-11-24T18:34:24.618Z,14.77
2017-11-24T18:37:05.756Z,16.23
2017-11-24T18:39:33.168Z,17.37
2017-11-24T18:42:00.594Z,65.93
2017-11-24T18:44:31.121Z,20.33
2017-11-24T18:46:59.632Z,15.10
2017-11-24T18:49:27.031Z,19.83
2017-11-24T18:51:54.443Z,18.43
2017-11-24T18:54:21.863Z,21.37
2017-11-24T18:56:49.280Z,18.10
2017-11-24T18:59:17.455Z,20.10
2017-11-24T19:01:45.631Z,19.17
2017-11-24T19:04:13.814Z,16.63
2017-11-24T19:06:41.991Z,18.10
2017-11-24T19:09:09.401Z,15.70
2017-11-24T19:11:36.815Z,18.60
2017-11-24T19:14:04.225Z,15.67
2017-11-24T19:16:31.639Z,16.07
2017-11-24T19:18:59.072Z,15.50
2017-11-24T19:21:26.483Z,14.73
2017-11-24T19:23:53.901Z,15.17
2017-11-24T19:26:22.322Z,19.43
2017-11-24T19:28:49.744Z,22.73
2017-11-24T19:31:17.187Z,24.50
2017-11-24T19:33:45.353Z,25.03
2017-11-24T19:36:12.758Z,25.87
2017-11-24T19:38:40.179Z,25.20
2017-11-24T19:41:07.592Z,34.10
2017-11-24T19:43:35.006Z,39.17
2017-11-24T19:46:02.431Z,43.00
2017-11-24T19:48:29.847Z,42.83
2017-11-24T19:50:57.350Z,39.23
2017-11-24T19:53:24.758Z,45.77
2017-11-24T19:55:52.171Z,35.60
2017-11-24T19:58:19.591Z,41.73
2017-11-24T20:00:47.771Z,37.67
2017-11-24T20:03:15.955Z,31.07
2017-11-24T20:05:43.375Z,26.63
2017-11-24T20:08:10.795Z,30.37
2017-11-24T20:10:38.215Z,22.97
2017-11-24T20:13:06.394Z,34.13
2017-11-24T20:15:33.814Z,31.90
2017-11-24T20:18:01.231Z,25.60
2017-11-24T20:20:28.647Z,25.43
2017-11-24T20:22:56.837Z,27.07
2017-11-24T20:25:24.258Z,25.10
2017-11-24T20:27:51.660Z,25.90
2017-11-24T20:30:19.076Z,24.47
2017-11-24T20:32:46.483Z,21.83
2017-11-24T20:35:13.907Z,24.80
2017-11-24T20:37:42.086Z,25.77
2017-11-24T20:40:10.275Z,19.90
2017-11-24T20:42:37.682Z,24.30
2017-11-24T20:45:05.107Z,25.67
2017-11-24T20:47:32.534Z,22.47
2017-11-24T20:50:00.925Z,21.87
2017-11-24T20:52:28.336Z,21.50
2017-11-24T20:54:55.752Z,18.80
2017-11-24T20:57:23.164Z,15.37
2017-11-24T20:59:51.790Z,12.87
2017-11-24T21:02:19.208Z,17.47
2017-11-24T21:04:46.628Z,18.93
2017-11-24T21:07:14.060Z,21.70
2017-11-24T21:09:41.495Z,20.47
2017-11-24T21:12:08.912Z,23.67
2017-11-24T21:14:36.646Z,22.90
2017-11-24T21:17:04.064Z,24.90
2017-11-24T21:19:31.755Z,23.70
2017-11-24T21:21:59.162Z,27.00
2017-11-24T21:24:27.334Z,30.57
2017-11-24T21:26:55.868Z,23.37
2017-11-24T21:29:23.614Z,25.20
2017-11-24T21:31:51.034Z,25.47
2017-11-24T21:34:18.447Z,16.63
2017-11-24T21:36:45.874Z,19.33
2017-11-24T21:39:13.307Z,19.30
2017-11-24T21:41:41.487Z,21.53
2017-11-24T21:44:09.678Z,15.10
2017-11-24T21:46:37.103Z,19.27
2017-11-24T21:49:04.515Z,20.93
2017-11-24T21:51:31.951Z,20.30
2017-11-24T21:53:59.363Z,21.20
2017-11-24T21:56:26.771Z,18.07
2017-11-24T21:58:54.378Z,20.53
2017-11-24T22:01:21.796Z,20.50
2017-11-24T22:03:49.773Z,24.30
2017-11-24T22:06:17.727Z,29.90
2017-11-24T22:08:45.813Z,26.90
2017-11-24T22:11:13.206Z,24.87
2017-11-24T22:13:40.927Z,18.93
2017-11-24T22:16:08.370Z,18.43
2017-11-24T22:18:36.328Z,17.30
2017-11-24T22:21:04.293Z,20.77
2017-11-24T22:23:32.747Z,15.53
2017-11-24T22:26:00.460Z,16.70
2017-11-24T22:28:27.876Z,16.87
2017-11-24T22:30:56.051Z,13.13
2017-11-24T22:33:24.230Z,14.97
2017-11-24T22:35:52.779Z,15.00
2017-11-24T22:38:20.618Z,12.80
2017-11-24T22:40:48.047Z,16.60
2017-11-24T22:43:15.454Z,17.60
2017-11-24T22:45:42.865Z,12.33
2017-11-24T22:48:10.273Z,13.57
2017-11-24T22:50:37.692Z,20.13
2017-11-24T22:53:05.109Z,16.87
2017-11-24T22:55:32.858Z,24.50
2017-11-24T22:58:00.283Z,20.50
2017-11-24T23:00:28.304Z,14.20
2017-11-24T23:02:56.571Z,18.30
2017-11-24T23:05:24.766Z,28.33
2017-11-24T23:07:52.947Z,26.10
2017-11-24T23:10:20.358Z,22.73
2017-11-24T23:12:48.042Z,24.43
2017-11-24T23:15:16.246Z,18.00
2017-11-24T23:17:43.738Z,22.93
2017-11-24T23:20:12.065Z,20.20
2017-11-24T23:22:40.239Z,22.07
2017-11-24T23:25:08.415Z,20.80
2017-11-24T23:27:36.208Z,16.63
2017-11-24T23:30:03.623Z,15.80
2017-11-24T23:32:31.802Z,14.93
2017-11-24T23:34:59.982Z,14.57
2017-11-24T23:37:27.763Z,18.97
2017-11-24T23:39:55.171Z,17.17
2017-11-24T23:42:22.591Z,14.13
2017-11-24T23:44:49.999Z,12.70
2017-11-24T23:47:18.179Z,13.80
2017-11-24T23:49:46.350Z,11.87
2017-11-24T23:52:14.544Z,11.33
2017-11-24T23:54:41.942Z,14.00
2017-11-24T23:57:09.358Z,13.00
2017-11-24T23:59:36.975Z,11.53
